x

Virginia Beach 64 Nm East Of Virginia Beach, Va (44014) Wave Buoy

2:50 - Thu 24th Apr 2014 All times are EDT. -4 hours from GMT.

  • Sig Wave height 4.9ft
  • Swell Direction
  • Peak Period 7s
  • Average Period 5s
  • Wind
    13mph, 16mph gusts
  • Sea Temp 49°f
  • Ar Temp 49°f
  • Sea Pressure 1017.5mb
  • Virginia Beach 64 Nm East Of Virginia Beach, Va
  • Virginia Beach 64 Nm East Of Virginia Beach, Va

More Historic Weather Station data

Upgrade to MSW Pro to gain access to the past 30 days of data for over 8000 Wavebouys and Weather Stations around the globe.

Join Pro

Comparision Forecast

View Surf forecast
   
Qui 04/24 2:50 5ft 7s 5s 13 16 mph 1017.5mb 49f 49f
1:50 5.5ft 8s 5s 13
mph
1018.1mb 49f 49f
12:50 5ft 8s 5s 16 18 mph 1018.5mb 49f 49f
11:50 5ft 6s 5s 13 16 mph 1019mb 49f 49f
10:50 4.5ft 6s 5s 16 20 mph 1019.1mb 49f 49f
9:50 6ft 6s 5s 16 20 mph 1018.7mb 48f 49f
8:50 6ft 7s 5s 20 22 mph 1018.1mb 49f 49f
7:50 6ft 7s 5s 20 27 mph 1017.2mb 48f 49f
6:50 7ft 6s 5s 20 25 mph 1016.8mb 48f 49f
5:50 5.5ft 6s 5s 22 29 mph 1015.4mb 48f 49f
4:50 6ft 6s 5s 20 27 mph 1015.4mb 48f 49f
3:50 6ft 6s 5s 20 27 mph 1014.9mb 49f 49f
2:50 4.5ft 5s 4s 29 36 mph 1014mb 49f 50f
1:50 4.5ft 5s 4s 20 25 mph 1013.9mb 49f 51f
12:50 4ft 6s 4s 18 22 mph 1013.5mb 49f 52f
Qua 04/23 11:50 3.5ft 5s 4s 22 27 mph 1012.5mb 49f 53f
10:50 3.5ft 5s 4s 16 18 mph 1012.2mb 49f 52f
9:50 4ft 6s 5s 9 11 mph 1012mb 49f 51f
8:50 4.5ft 5s 5s 16 18 mph 1011mb 49f 52f
6:50 4.5ft 5s 5s 16 18 mph 1009mb 49f 52f
5:50 4.5ft 6s 5s 16 20 mph 1008.7mb 49f 52f
4:50 4.5ft 5s 5s 16 20 mph 1008.1mb 49f 52f
3:50 4ft 5s 5s 16 20 mph 1007.6mb 49f 51f
2:50 4.5ft 5s 5s 13 16 mph 1007.8mb 49f 52f
1:50 4.5ft 5s 5s 11 13 mph 1007.9mb 49f 51f
12:50 4.5ft 5s 5s 13 16 mph 1008mb 49f 51f
11:50 4.5ft 5s 5s 16 18 mph 1007.9mb 49f 51f
10:50 5ft 5s 5s 11 13 mph 1007.8mb 49f 51f
9:50 4.5ft 9s 5s 13 16 mph 1007.1mb 49f 51f
8:50 4.5ft 9s 4s 18 20 mph 1006.2mb 49f 52f
7:50 4.5ft 8s 5s 18 22 mph 1005.3mb 49f 52f
6:50 4ft 9s 5s 22 25 mph 1003.8mb 49f 53f
5:50 4ft 9s 6s 20 25 mph 1002.7mb 49f 53f
4:50 4ft 8s 6s 13 16 mph 1001.7mb 49f 54f
3:50 4.5ft 8s 6s 9 11 mph 1001.4mb 49f 53f
2:50 4.5ft 9s 6s 9
mph
1001.5mb 49f 51f
1:50 4.5ft 9s 6s 9
mph
1001.9mb 49f 52f
12:50 4.5ft 9s 6s 7 9 mph 1002.1mb 49f 53f
Ter 04/22 11:50 4ft 9s 5s 7 11 mph 1002.8mb 49f 53f
10:50 4.5ft 9s 5s 13 16 mph 1002.7mb 49f 55f
9:50 4ft 8s 5s 16 18 mph 1002.7mb 49f 55f
8:50 4ft 8s 5s 13 16 mph 1002.7mb 49f 54f
7:50 4.5ft 9s 5s 16 18 mph 1002.7mb 49f 55f
6:50 4ft 9s 6s 16 18 mph 1002.9mb 49f 55f
5:50 4.5ft 9s 6s 11 13 mph 1003.5mb 50f 55f
4:50 5ft 9s 7s 11 13 mph 1003.9mb 50f 54f
3:50 4.5ft 8s 7s 11 13 mph 1004.4mb 50f 54f
2:50 4.5ft 9s 7s 9 11 mph 1005.3mb 49f 53f
1:50 4ft 9s 7s 11 13 mph 1006mb 49f 52f
12:50 5ft 9s 7s 9 11 mph 1007.3mb 49f 50f
11:50 5ft 9s 7s 7 9 mph 1008.3mb 49f 48f
10:50 5ft 9s 7s 7
mph
1008.8mb 49f 47f
9:50 5ft 9s 7s 7
mph
1009.3mb 48f 46f
8:50 5ft 9s 7s 4 7 mph 1009.4mb 48f 46f
7:50 5.5ft 10s 7s 4 7 mph 1010mb 48f 46f
6:50 5ft 10s 7s 4 7 mph 1009.9mb 48f 47f
5:50 6ft 10s 7s 4 7 mph 1010mb 48f 47f
4:50 6ft 10s 7s 11
mph
1010.2mb 48f 48f
3:50 6ft 11s 7s 7
mph
1010.3mb 48f 48f
2:50 6ft 10s 7s 2 4 mph 1010.7mb 48f 48f
1:50 6ft 10s 7s 9 11 mph 1011.4mb 48f 48f
12:50 6ft 10s 7s 11
mph
1011.9mb 48f 48f
Seg 04/21 11:50 6.5ft 10s 7s 9 11 mph 1012.3mb 48f 48f
10:50 6ft 10s 6s 11
mph
1012.9mb 48f 48f
9:50 6.5ft 9s 6s 13
mph
1013.5mb 48f 49f
8:50 6.5ft 10s 7s 13 16 mph 1013.3mb 48f 49f
7:50 6.5ft 10s 6s 13 16 mph 1013.3mb 48f 49f
6:50 7ft 10s 6s 16 18 mph 1013.3mb 48f 49f
5:50 7.5ft 10s 6s 16 20 mph 1013.9mb 48f 49f
4:50 8ft 10s 6s 18 20 mph 1014.1mb 48f 49f
3:50 7.5ft 8s 6s 18 22 mph 1014.5mb 48f 48f
2:50 9ft 10s 6s 20 25 mph 1015.3mb 48f 48f
1:50 9ft 10s 6s 20 25 mph 1015.9mb 48f 48f
12:50 8.5ft 10s 6s 22 25 mph 1016.2mb 48f 48f
11:50 9ft 10s 6s 22 25 mph 1016.7mb 48f 49f
10:50 9ft 10s 6s 22 27 mph 1017mb 48f 49f
9:50 9ft 10s 6s 22 27 mph 1017.2mb 47f 49f
8:50 9.5ft 11s 6s 22 27 mph 1017.3mb 47f 49f
7:50 12ft 10s 7s 22 29 mph 1017.3mb 48f 49f
6:50 11ft 10s 7s 22 27 mph 1017mb 48f 50f
5:50 11.5ft 10s 7s 22 25 mph 1016.6mb 48f 50f
4:50 11ft 11s 7s 25 29 mph 1016.6mb 48f 50f
3:50 12.5ft 11s 7s 22 27 mph 1017.1mb 48f 51f
2:50 12ft 11s 7s 22 29 mph 1017.4mb 48f 51f
1:50 13ft 11s 7s 25 29 mph 1018mb 48f 51f
12:50 12.5ft 11s 7s 25 31 mph 1019mb 48f 50f
Dom 04/20 11:50 12.5ft 10s 7s 27 31 mph 1019.4mb 48f 50f
10:50 13ft 11s 7s 27 31 mph 1019.6mb 48f 50f
9:50 13ft 11s 7s 25 31 mph 1020.3mb 48f 49f
8:50 14ft 11s 7s 27 34 mph 1020.7mb 48f 49f